createdAt,value
2022-10-04T00:00:35.220Z,13.40
2022-10-04T00:03:06.627Z,13.40
2022-10-04T00:05:34.411Z,13.40
2022-10-04T00:08:18.133Z,13.40
2022-10-04T00:10:45.386Z,13.40
2022-10-04T00:13:18.290Z,13.40
2022-10-04T00:15:49.799Z,13.60
2022-10-04T00:18:28.572Z,13.50
2022-10-04T00:20:57.295Z,13.50
2022-10-04T00:23:28.714Z,13.70
2022-10-04T00:25:59.680Z,13.50
2022-10-04T00:28:26.841Z,13.60
2022-10-04T00:31:06.307Z,13.60
2022-10-04T00:33:35.190Z,13.60
2022-10-04T00:36:22.190Z,13.60
2022-10-04T00:39:03.383Z,13.70
2022-10-04T00:41:56.077Z,14.30
2022-10-04T00:44:41.605Z,13.70
2022-10-04T00:47:40.897Z,13.70
2022-10-04T00:50:13.646Z,13.70
2022-10-04T00:52:46.515Z,13.80
2022-10-04T00:55:34.613Z,13.80
2022-10-04T00:58:03.331Z,13.80
2022-10-04T01:00:35.336Z,13.80
2022-10-04T01:03:08.320Z,13.90
2022-10-04T01:05:37.644Z,13.90
2022-10-04T01:08:08.564Z,14.00
2022-10-04T01:10:50.308Z,13.90
2022-10-04T01:13:21.889Z,13.90
2022-10-04T01:15:59.509Z,14.00
2022-10-04T01:18:26.590Z,13.90
2022-10-04T01:20:55.352Z,14.00
2022-10-04T01:23:31.291Z,14.00
2022-10-04T01:25:59.085Z,14.00
2022-10-04T01:28:26.921Z,14.00
2022-10-04T01:30:54.632Z,14.00
2022-10-04T01:33:21.696Z,14.10
2022-10-04T01:35:48.916Z,14.00
2022-10-04T01:38:16.025Z,14.00
2022-10-04T01:40:47.446Z,14.10
2022-10-04T01:43:17.127Z,14.10
2022-10-04T01:45:48.019Z,13.40
2022-10-04T01:48:16.265Z,14.10
2022-10-04T01:50:45.261Z,14.10
2022-10-04T01:53:21.303Z,14.20
2022-10-04T01:55:50.183Z,14.10
2022-10-04T01:58:22.900Z,14.20
2022-10-04T02:01:01.796Z,14.10
2022-10-04T02:03:35.060Z,14.10
2022-10-04T02:06:04.228Z,14.20
2022-10-04T02:08:33.762Z,14.20
2022-10-04T02:11:01.765Z,14.20
2022-10-04T02:13:33.643Z,14.20
2022-10-04T02:16:02.820Z,14.20
2022-10-04T02:18:31.846Z,14.20
2022-10-04T02:20:59.531Z,14.30
2022-10-04T02:23:27.026Z,14.20
2022-10-04T02:25:54.599Z,14.30
2022-10-04T02:28:21.771Z,14.30
2022-10-04T02:31:09.396Z,14.30
2022-10-04T02:33:51.479Z,14.30
2022-10-04T02:36:19.717Z,14.30
2022-10-04T02:38:54.125Z,14.30
2022-10-04T02:41:24.394Z,14.30
2022-10-04T02:43:55.209Z,14.30
2022-10-04T02:46:29.469Z,14.30
2022-10-04T02:48:58.742Z,14.40
2022-10-04T02:51:28.565Z,14.40
2022-10-04T02:54:02.259Z,14.40
2022-10-04T02:56:30.907Z,14.30
2022-10-04T02:59:01.229Z,14.40
2022-10-04T03:01:38.900Z,14.40
2022-10-04T03:04:06.985Z,14.40
2022-10-04T03:06:34.587Z,14.40
2022-10-04T03:09:03.664Z,14.40
2022-10-04T03:11:33.820Z,14.40
2022-10-04T03:14:01.780Z,14.50
2022-10-04T03:16:34.232Z,14.40
2022-10-04T03:19:01.902Z,14.40
2022-10-04T03:21:31.148Z,14.40
2022-10-04T03:24:01.041Z,14.50
2022-10-04T03:26:29.293Z,14.40
2022-10-04T03:28:59.889Z,15.00
2022-10-04T03:31:28.153Z,14.40
2022-10-04T03:33:56.612Z,15.20
2022-10-04T03:36:25.289Z,15.50
2022-10-04T03:38:53.719Z,14.20
2022-10-04T03:41:21.969Z,14.50
2022-10-04T03:43:50.051Z,14.40
2022-10-04T03:46:18.375Z,14.90
2022-10-04T03:48:50.300Z,14.50
2022-10-04T03:51:18.893Z,14.40
2022-10-04T03:53:47.596Z,14.40
2022-10-04T03:56:23.212Z,14.40
2022-10-04T03:58:50.860Z,14.40
2022-10-04T04:01:18.070Z,14.50
2022-10-04T04:03:55.367Z,14.50
2022-10-04T04:06:23.581Z,14.50
2022-10-04T04:08:53.144Z,14.50
2022-10-04T04:11:25.159Z,14.50
2022-10-04T04:13:58.484Z,14.50
2022-10-04T04:16:28.676Z,14.60
2022-10-04T04:19:01.300Z,14.50
2022-10-04T04:21:29.291Z,14.50
2022-10-04T04:24:01.632Z,14.60
2022-10-04T04:26:31.493Z,14.60
2022-10-04T04:29:03.782Z,14.60
2022-10-04T04:31:40.968Z,13.90
2022-10-04T04:34:19.815Z,14.60
2022-10-04T04:36:47.112Z,14.60
2022-10-04T04:39:37.483Z,14.60
2022-10-04T04:42:07.166Z,14.60
2022-10-04T04:44:34.965Z,15.30
2022-10-04T04:47:05.586Z,14.60
2022-10-04T04:49:33.683Z,14.80
2022-10-04T04:52:01.022Z,14.60
2022-10-04T04:54:28.148Z,14.60
2022-10-04T04:56:55.624Z,14.70
2022-10-04T04:59:24.621Z,14.60
2022-10-04T05:01:54.687Z,14.70
2022-10-04T05:04:23.662Z,14.70
2022-10-04T05:07:01.274Z,14.70
2022-10-04T05:09:30.430Z,14.70
2022-10-04T05:12:02.046Z,14.70
2022-10-04T05:14:31.994Z,14.70
2022-10-04T05:16:59.039Z,14.70
2022-10-04T05:19:39.641Z,14.80
2022-10-04T05:22:11.180Z,14.70
2022-10-04T05:24:40.113Z,14.70
2022-10-04T05:27:09.452Z,14.70
2022-10-04T05:29:39.691Z,14.70
2022-10-04T05:32:24.136Z,14.60
2022-10-04T05:34:51.360Z,14.70
2022-10-04T05:37:33.815Z,14.70
2022-10-04T05:40:03.901Z,14.30
2022-10-04T05:42:45.445Z,14.60
2022-10-04T05:45:12.771Z,14.60
2022-10-04T05:47:40.902Z,14.60
2022-10-04T05:50:14.870Z,14.60
2022-10-04T05:52:43.265Z,14.60
2022-10-04T05:55:18.269Z,14.60
2022-10-04T05:58:03.852Z,14.60
2022-10-04T06:00:39.249Z,14.60
2022-10-04T06:03:13.877Z,14.60
2022-10-04T06:05:44.083Z,14.60
2022-10-04T06:08:34.564Z,14.60
2022-10-04T06:11:16.604Z,15.40
2022-10-04T06:13:46.831Z,14.60
2022-10-04T06:16:30.097Z,14.60
2022-10-04T06:19:12.538Z,14.60
2022-10-04T06:21:42.656Z,14.50
2022-10-04T06:24:17.259Z,14.60
2022-10-04T06:26:47.304Z,14.60
2022-10-04T06:29:16.107Z,14.60
2022-10-04T06:32:09.171Z,14.60
2022-10-04T06:34:55.089Z,14.60
2022-10-04T06:37:25.243Z,14.60
2022-10-04T06:40:01.293Z,14.60
2022-10-04T06:42:33.978Z,14.60
2022-10-04T06:45:25.826Z,14.60
2022-10-04T06:47:55.966Z,14.70
2022-10-04T06:50:42.026Z,14.70
2022-10-04T06:53:24.248Z,14.70
2022-10-04T06:56:07.239Z,15.40
2022-10-04T06:58:45.997Z,14.80
2022-10-04T07:01:24.514Z,14.80
2022-10-04T07:03:52.872Z,14.80
2022-10-04T07:06:30.010Z,14.70
2022-10-04T07:09:02.453Z,14.70
2022-10-04T07:11:32.805Z,14.80
2022-10-04T07:14:02.979Z,14.80
2022-10-04T07:16:50.064Z,14.80
2022-10-04T07:19:19.918Z,14.90
2022-10-04T07:21:59.138Z,14.90
2022-10-04T07:24:49.661Z,14.30
2022-10-04T07:27:28.845Z,14.90
2022-10-04T07:29:57.838Z,14.90
2022-10-04T07:32:25.019Z,14.90
2022-10-04T07:35:14.946Z,15.00
2022-10-04T07:38:09.776Z,15.00
2022-10-04T07:40:38.607Z,15.00
2022-10-04T07:43:22.110Z,15.00
2022-10-04T07:45:50.507Z,15.10
2022-10-04T07:48:26.441Z,15.10
2022-10-04T07:51:14.079Z,15.10
2022-10-04T07:53:48.970Z,15.20
2022-10-04T07:56:18.166Z,15.10
2022-10-04T07:58:49.261Z,15.20
2022-10-04T08:01:35.034Z,15.20
2022-10-04T08:04:11.132Z,15.40
2022-10-04T08:06:44.082Z,15.30
2022-10-04T08:09:11.371Z,15.40
2022-10-04T08:11:38.406Z,15.40
2022-10-04T08:14:11.417Z,15.40
2022-10-04T08:16:58.714Z,15.40
2022-10-04T08:19:36.289Z,15.50
2022-10-04T08:22:03.354Z,15.50
2022-10-04T08:24:42.673Z,15.50
2022-10-04T08:27:12.496Z,15.50
2022-10-04T08:29:46.015Z,15.60
2022-10-04T08:32:28.432Z,15.60
2022-10-04T08:35:07.583Z,15.60
2022-10-04T08:37:37.521Z,15.60
2022-10-04T08:40:24.109Z,15.60
2022-10-04T08:43:03.250Z,16.20
2022-10-04T08:45:47.633Z,15.60
2022-10-04T08:48:40.735Z,15.50
2022-10-04T08:51:19.831Z,15.60
2022-10-04T08:53:46.870Z,15.50
2022-10-04T08:56:13.954Z,15.50
2022-10-04T08:58:51.672Z,15.50
2022-10-04T09:01:48.282Z,15.60
2022-10-04T09:04:40.224Z,15.60
2022-10-04T09:07:25.954Z,15.60
2022-10-04T09:09:53.108Z,15.60
2022-10-04T09:12:20.232Z,15.60
2022-10-04T09:15:03.492Z,15.80
2022-10-04T09:17:47.432Z,15.60
2022-10-04T09:20:38.830Z,15.60
2022-10-04T09:23:12.258Z,15.60
2022-10-04T09:26:01.499Z,15.60
2022-10-04T09:28:47.789Z,15.60
2022-10-04T09:31:14.872Z,15.60
2022-10-04T09:33:47.827Z,15.70
2022-10-04T09:36:33.443Z,15.70
2022-10-04T09:39:28.995Z,15.70
2022-10-04T09:41:56.928Z,15.70
2022-10-04T09:44:33.920Z,15.70
2022-10-04T09:47:03.828Z,16.00
2022-10-04T09:49:50.594Z,15.80
2022-10-04T09:52:17.631Z,15.80
2022-10-04T09:54:56.882Z,15.80
2022-10-04T09:57:43.327Z,15.80
2022-10-04T10:00:24.977Z,15.90
2022-10-04T10:03:11.048Z,16.00
2022-10-04T10:05:48.243Z,16.10
2022-10-04T10:08:28.090Z,16.40
2022-10-04T10:11:29.283Z,16.30
2022-10-04T10:13:59.183Z,16.50
2022-10-04T10:16:31.977Z,16.50
2022-10-04T10:19:16.361Z,16.50
2022-10-04T10:21:54.037Z,16.50
2022-10-04T10:24:24.019Z,16.50
2022-10-04T10:27:13.991Z,16.40
2022-10-04T10:29:51.107Z,16.40
2022-10-04T10:32:44.885Z,16.40
2022-10-04T10:35:24.618Z,16.40
2022-10-04T10:38:15.422Z,16.40
2022-10-04T10:40:45.467Z,17.20
2022-10-04T10:43:22.362Z,16.50
2022-10-04T10:45:56.744Z,16.50
2022-10-04T10:48:32.951Z,16.60
2022-10-04T10:51:30.857Z,15.90
2022-10-04T10:54:13.622Z,16.80
2022-10-04T10:56:56.832Z,16.80
2022-10-04T10:59:42.506Z,16.00
2022-10-04T11:02:18.597Z,16.90
2022-10-04T11:04:55.030Z,17.00
2022-10-04T11:07:22.967Z,17.10
2022-10-04T11:10:05.940Z,17.20
2022-10-04T11:12:33.026Z,17.20
2022-10-04T11:15:21.199Z,17.20
2022-10-04T11:18:13.104Z,17.20
2022-10-04T11:20:43.454Z,17.30
2022-10-04T11:23:29.112Z,17.40
2022-10-04T11:25:56.537Z,17.40
2022-10-04T11:28:46.577Z,17.40
2022-10-04T11:31:26.214Z,17.40
2022-10-04T11:34:16.636Z,17.40
2022-10-04T11:37:07.433Z,17.30
2022-10-04T11:39:34.501Z,17.30
2022-10-04T11:42:07.847Z,17.20
2022-10-04T11:44:55.317Z,17.20
2022-10-04T11:47:41.055Z,17.10
2022-10-04T11:50:26.935Z,17.60
2022-10-04T11:53:13.974Z,17.10
2022-10-04T11:55:54.458Z,17.10
2022-10-04T11:58:27.487Z,17.10
2022-10-04T12:01:16.256Z,17.10
2022-10-04T12:04:03.305Z,18.00
2022-10-04T12:06:34.105Z,17.10
2022-10-04T12:09:19.777Z,17.30
2022-10-04T12:12:08.485Z,17.60
2022-10-04T12:14:54.294Z,17.40
2022-10-04T12:17:40.270Z,17.50
2022-10-04T12:20:19.772Z,17.60
2022-10-04T12:22:53.053Z,17.70
2022-10-04T12:25:20.076Z,17.80
2022-10-04T12:27:59.666Z,17.80
2022-10-04T12:30:35.319Z,17.80
2022-10-04T12:33:03.475Z,17.80
2022-10-04T12:35:48.345Z,17.70
2022-10-04T12:38:24.703Z,17.60
2022-10-04T12:41:12.029Z,17.50
2022-10-04T12:43:45.052Z,17.50
2022-10-04T12:46:21.330Z,17.50
2022-10-04T12:48:51.850Z,17.40
2022-10-04T12:51:35.283Z,17.40
2022-10-04T12:54:27.200Z,17.30
2022-10-04T12:57:04.166Z,17.30
2022-10-04T12:59:38.706Z,17.60
2022-10-04T13:02:08.652Z,17.30
2022-10-04T13:04:55.225Z,17.30
2022-10-04T13:07:34.521Z,17.30
2022-10-04T13:10:24.502Z,17.30
2022-10-04T13:12:55.094Z,17.30
2022-10-04T13:15:25.925Z,17.20
2022-10-04T13:18:13.434Z,17.20
2022-10-04T13:20:59.277Z,17.20
2022-10-04T13:23:32.188Z,17.20
2022-10-04T13:26:15.460Z,17.20
2022-10-04T13:29:02.898Z,18.20
2022-10-04T13:31:40.995Z,17.30
2022-10-04T13:34:14.604Z,17.20
2022-10-04T13:36:44.454Z,17.30
2022-10-04T13:39:30.545Z,17.40
2022-10-04T13:42:13.559Z,17.40
2022-10-04T13:44:40.593Z,17.50
2022-10-04T13:47:23.911Z,18.40
2022-10-04T13:50:09.667Z,17.50
2022-10-04T13:53:01.998Z,17.50
2022-10-04T13:55:54.301Z,17.50
2022-10-04T13:58:27.778Z,17.50
2022-10-04T14:00:54.822Z,17.40
2022-10-04T14:03:30.993Z,17.40
2022-10-04T14:06:07.324Z,17.50
2022-10-04T14:08:37.317Z,17.60
2022-10-04T14:11:16.745Z,17.60
2022-10-04T14:14:02.609Z,18.20
2022-10-04T14:16:38.522Z,17.60
2022-10-04T14:19:17.574Z,17.60
2022-10-04T14:22:03.886Z,17.60
2022-10-04T14:24:36.982Z,17.60
2022-10-04T14:27:13.441Z,17.60
2022-10-04T14:29:40.491Z,17.50
2022-10-04T14:32:22.738Z,17.50
2022-10-04T14:34:59.608Z,17.40
2022-10-04T14:37:45.745Z,16.20
2022-10-04T14:40:33.460Z,17.20
2022-10-04T14:43:19.102Z,17.30
2022-10-04T14:45:55.203Z,17.30
2022-10-04T14:48:43.678Z,17.30
2022-10-04T14:51:10.771Z,17.30
2022-10-04T14:53:41.105Z,17.20
2022-10-04T14:56:21.047Z,17.20
2022-10-04T14:58:57.025Z,17.20
2022-10-04T15:01:25.311Z,17.10
2022-10-04T15:04:03.507Z,17.20
2022-10-04T15:06:51.563Z,17.20
2022-10-04T15:09:37.749Z,17.20
2022-10-04T15:15:12.213Z,16.50
2022-10-04T15:18:00.008Z,17.10
2022-10-04T15:20:33.488Z,17.10
2022-10-04T15:23:14.807Z,17.10
2022-10-04T15:25:43.549Z,17.00
2022-10-04T15:28:13.361Z,17.00
2022-10-04T15:30:53.590Z,17.00
2022-10-04T15:33:41.226Z,17.00
2022-10-04T15:36:22.933Z,17.00
2022-10-04T15:39:02.996Z,17.00
2022-10-04T15:41:30.092Z,17.00
2022-10-04T15:44:07.400Z,17.10
2022-10-04T15:46:44.070Z,17.10
2022-10-04T15:49:14.424Z,17.10
2022-10-04T15:51:49.893Z,17.10
2022-10-04T15:54:35.426Z,17.10
2022-10-04T15:57:22.779Z,17.10
2022-10-04T15:59:55.741Z,16.90
2022-10-04T16:02:31.216Z,17.00
2022-10-04T16:05:03.575Z,16.90
2022-10-04T16:07:36.733Z,17.80
2022-10-04T16:10:24.368Z,16.90
2022-10-04T16:13:00.331Z,16.90
2022-10-04T16:15:30.485Z,16.90
2022-10-04T16:18:13.088Z,16.40
2022-10-04T16:20:58.401Z,16.90
2022-10-04T16:23:31.403Z,16.90
2022-10-04T16:25:58.475Z,16.90
2022-10-04T16:28:44.725Z,16.90
2022-10-04T16:31:37.079Z,16.90
2022-10-04T16:34:22.770Z,16.80
2022-10-04T16:36:52.760Z,16.80
2022-10-04T16:39:54.065Z,16.80
2022-10-04T16:42:25.014Z,16.70
2022-10-04T16:44:59.178Z,16.70
2022-10-04T16:47:32.308Z,16.70
2022-10-04T16:50:01.606Z,16.70
2022-10-04T16:52:31.806Z,16.70
2022-10-04T16:55:01.722Z,16.70
2022-10-04T16:57:29.077Z,16.60
2022-10-04T17:00:00.697Z,16.60
2022-10-04T17:02:30.561Z,16.60
2022-10-04T17:05:05.075Z,16.60
2022-10-04T17:07:58.921Z,16.60
2022-10-04T17:10:35.109Z,16.60
2022-10-04T17:13:23.722Z,16.50
2022-10-04T17:15:59.705Z,16.50
2022-10-04T17:18:26.878Z,16.50
2022-10-04T17:21:03.018Z,16.50
2022-10-04T17:23:45.635Z,16.50
2022-10-04T17:26:31.307Z,16.40
2022-10-04T17:29:04.023Z,16.40
2022-10-04T17:31:43.502Z,16.40
2022-10-04T17:34:13.369Z,16.40
2022-10-04T17:36:45.235Z,16.40
2022-10-04T17:39:12.621Z,16.30
2022-10-04T17:41:42.474Z,16.30
2022-10-04T17:44:12.625Z,16.20
2022-10-04T17:46:47.367Z,16.30
2022-10-04T17:50:02.675Z,16.30
2022-10-04T17:52:53.238Z,16.20
2022-10-04T17:55:23.850Z,16.20
2022-10-04T17:57:54.327Z,16.20
2022-10-04T18:00:23.724Z,16.20
2022-10-04T18:03:11.698Z,16.20
2022-10-04T18:05:41.512Z,16.60
2022-10-04T18:08:13.868Z,16.20
2022-10-04T18:10:56.105Z,16.20
2022-10-04T18:13:30.183Z,16.20
2022-10-04T18:15:57.239Z,16.20
2022-10-04T18:18:30.991Z,16.10
2022-10-04T18:21:05.329Z,16.20
2022-10-04T18:23:35.254Z,16.20
2022-10-04T18:26:05.322Z,16.20
2022-10-04T18:28:35.136Z,16.20
2022-10-04T18:31:18.865Z,16.10
2022-10-04T18:33:50.397Z,16.10
2022-10-04T18:36:17.713Z,16.10
2022-10-04T18:38:46.185Z,16.00
2022-10-04T18:41:17.910Z,16.00
2022-10-04T18:43:47.952Z,16.00
2022-10-04T18:46:22.926Z,16.00
2022-10-04T18:48:53.509Z,16.10
2022-10-04T18:51:40.882Z,16.00
2022-10-04T18:54:26.673Z,16.00
2022-10-04T18:56:56.548Z,16.00
2022-10-04T18:59:42.058Z,16.00
2022-10-04T19:02:31.372Z,16.00
2022-10-04T19:05:07.013Z,16.00
2022-10-04T19:07:34.667Z,16.00
2022-10-04T19:10:01.684Z,16.00
2022-10-04T19:12:32.810Z,16.00
2022-10-04T19:15:16.497Z,16.20
2022-10-04T19:17:43.592Z,16.00
2022-10-04T19:20:19.583Z,16.00
2022-10-04T19:23:05.193Z,16.00
2022-10-04T19:26:30.603Z,16.00
2022-10-04T19:28:55.198Z,16.00
2022-10-04T19:31:33.316Z,16.00
2022-10-04T19:34:05.362Z,15.90
2022-10-04T19:36:51.329Z,16.00
2022-10-04T19:39:27.406Z,15.90
2022-10-04T19:41:59.883Z,16.00
2022-10-04T19:44:35.924Z,15.90
2022-10-04T19:47:09.126Z,15.90
2022-10-04T19:49:45.963Z,15.90
2022-10-04T19:52:12.989Z,15.90
2022-10-04T19:54:40.161Z,15.90
2022-10-04T19:57:15.257Z,15.90
2022-10-04T19:59:45.028Z,15.90
2022-10-04T20:02:13.187Z,15.80
2022-10-04T20:04:42.126Z,15.90
2022-10-04T20:07:20.899Z,16.50
2022-10-04T20:09:53.187Z,15.90
2022-10-04T20:12:40.615Z,15.80
2022-10-04T20:15:16.641Z,15.80
2022-10-04T20:17:44.810Z,15.80
2022-10-04T20:20:16.804Z,15.80
2022-10-04T20:22:50.033Z,15.80
2022-10-04T20:25:49.402Z,15.80
2022-10-04T20:28:28.790Z,15.70
2022-10-04T20:30:57.740Z,15.70
2022-10-04T20:33:34.222Z,15.80
2022-10-04T20:36:05.257Z,15.70
2022-10-04T20:38:48.945Z,15.70
2022-10-04T20:42:17.774Z,15.80
2022-10-04T20:44:44.994Z,15.80
2022-10-04T20:47:39.434Z,15.70
2022-10-04T20:50:17.934Z,15.90
2022-10-04T20:52:46.485Z,15.90
2022-10-04T20:55:21.100Z,15.80
2022-10-04T20:57:48.220Z,15.90
2022-10-04T21:00:22.315Z,15.90
2022-10-04T21:02:50.279Z,15.90
2022-10-04T21:05:26.857Z,15.90
2022-10-04T21:08:14.112Z,15.90
2022-10-04T21:11:01.411Z,15.90
2022-10-04T21:13:42.207Z,15.90
2022-10-04T21:16:09.925Z,15.90
2022-10-04T21:18:37.509Z,15.90
2022-10-04T21:21:05.072Z,15.90
2022-10-04T21:23:33.835Z,15.90
2022-10-04T21:26:20.343Z,15.90
2022-10-04T21:28:57.254Z,15.30
2022-10-04T21:31:24.946Z,15.90
2022-10-04T21:33:52.284Z,16.00
2022-10-04T21:36:19.345Z,16.00
2022-10-04T21:38:46.423Z,15.30
2022-10-04T21:41:13.518Z,15.90
2022-10-04T21:43:40.575Z,16.00
2022-10-04T21:46:10.417Z,16.00
2022-10-04T21:48:37.567Z,16.00
2022-10-04T21:51:04.648Z,16.10
2022-10-04T21:53:31.719Z,16.00
2022-10-04T21:55:58.890Z,16.00
2022-10-04T21:58:25.970Z,16.00
2022-10-04T22:00:53.096Z,16.00
2022-10-04T22:03:20.194Z,16.00
2022-10-04T22:05:47.301Z,16.00
2022-10-04T22:08:14.385Z,16.40
2022-10-04T22:10:41.503Z,16.50
2022-10-04T22:13:08.720Z,16.00
2022-10-04T22:15:35.899Z,16.00
2022-10-04T22:18:03.003Z,16.00
2022-10-04T22:20:30.144Z,16.40
2022-10-04T22:22:58.017Z,16.10
2022-10-04T22:25:26.149Z,16.00
2022-10-04T22:27:53.580Z,16.00
2022-10-04T22:30:21.506Z,16.00
2022-10-04T22:32:48.997Z,16.00
2022-10-04T22:35:18.453Z,16.10
2022-10-04T22:37:46.080Z,16.00
2022-10-04T22:40:20.661Z,16.10
2022-10-04T22:42:55.254Z,16.10
2022-10-04T22:45:23.867Z,16.10
2022-10-04T22:47:51.242Z,16.10
2022-10-04T22:50:27.460Z,16.10
2022-10-04T22:52:54.820Z,16.10
2022-10-04T22:55:22.049Z,16.10
2022-10-04T22:57:49.701Z,16.10
2022-10-04T23:00:16.822Z,16.10
2022-10-04T23:02:44.023Z,16.10
2022-10-04T23:05:16.024Z,16.10
2022-10-04T23:07:44.094Z,16.10
2022-10-04T23:10:12.091Z,16.10
2022-10-04T23:12:40.866Z,16.10
2022-10-04T23:15:08.264Z,16.10
2022-10-04T23:17:37.274Z,16.10
2022-10-04T23:20:12.710Z,16.10
2022-10-04T23:22:40.106Z,16.10
2022-10-04T23:25:12.711Z,16.10
2022-10-04T23:27:41.542Z,16.10
2022-10-04T23:30:17.358Z,16.10
2022-10-04T23:32:48.311Z,16.00
2022-10-04T23:35:17.258Z,16.10
2022-10-04T23:37:44.521Z,15.90
2022-10-04T23:40:13.288Z,16.10
2022-10-04T23:42:40.634Z,16.10
2022-10-04T23:45:35.537Z,16.20
2022-10-04T23:48:02.691Z,16.10
2022-10-04T23:50:31.512Z,16.10
2022-10-04T23:53:04.410Z,16.10
2022-10-04T23:55:39.873Z,16.10
2022-10-04T23:58:17.440Z,16.10
